sensor_id;sensor_type;location;lat;lon;timestamp;pressure;altitude;pressure_sealevel;temperature;humidity
4767;BME280;2397;53.576;9.746;2024-01-10T00:02:21;103602.03;;;-4.79;100.00
4767;BME280;2397;53.576;9.746;2024-01-10T00:04:47;103600.34;;;-4.74;100.00
4767;BME280;2397;53.576;9.746;2024-01-10T00:07:14;103607.25;;;-4.70;100.00
4767;BME280;2397;53.576;9.746;2024-01-10T00:09:40;103598.66;;;-4.69;100.00
4767;BME280;2397;53.576;9.746;2024-01-10T00:12:07;103596.94;;;-4.70;100.00
4767;BME280;2397;53.576;9.746;2024-01-10T00:14:34;103587.50;;;-4.69;100.00
4767;BME280;2397;53.576;9.746;2024-01-10T00:17:01;103590.13;;;-4.65;100.00
4767;BME280;2397;53.576;9.746;2024-01-10T00:19:28;103581.59;;;-4.61;100.00
4767;BME280;2397;53.576;9.746;2024-01-10T00:21:55;103590.13;;;-4.66;100.00
4767;BME280;2397;53.576;9.746;2024-01-10T00:24:21;103583.13;;;-4.78;100.00
4767;BME280;2397;53.576;9.746;2024-01-10T00:26:48;103593.38;;;-4.82;100.00
4767;BME280;2397;53.576;9.746;2024-01-10T00:29:14;103590.91;;;-4.75;100.00
4767;BME280;2397;53.576;9.746;2024-01-10T00:31:41;103590.84;;;-4.78;100.00
4767;BME280;2397;53.576;9.746;2024-01-10T00:34:07;103583.16;;;-4.75;100.00
4767;BME280;2397;53.576;9.746;2024-01-10T00:36:34;103584.94;;;-4.69;100.00
4767;BME280;2397;53.576;9.746;2024-01-10T00:39:00;103586.63;;;-4.70;100.00
4767;BME280;2397;53.576;9.746;2024-01-10T00:41:27;103585.81;;;-4.64;100.00
4767;BME280;2397;53.576;9.746;2024-01-10T00:43:54;103584.13;;;-4.64;100.00
4767;BME280;2397;53.576;9.746;2024-01-10T00:46:20;103579.81;;;-4.63;100.00
4767;BME280;2397;53.576;9.746;2024-01-10T00:48:47;103583.28;;;-4.63;100.00
4767;BME280;2397;53.576;9.746;2024-01-10T00:51:13;103586.69;;;-4.65;100.00
4767;BME280;2397;53.576;9.746;2024-01-10T00:53:40;103580.69;;;-4.64;100.00
4767;BME280;2397;53.576;9.746;2024-01-10T00:56:09;103581.56;;;-4.64;100.00
4767;BME280;2397;53.576;9.746;2024-01-10T00:58:35;103580.69;;;-4.64;100.00
4767;BME280;2397;53.576;9.746;2024-01-10T01:01:02;103585.88;;;-4.60;100.00
4767;BME280;2397;53.576;9.746;2024-01-10T01:03:29;103578.97;;;-4.64;100.00
4767;BME280;2397;53.576;9.746;2024-01-10T01:05:55;103576.44;;;-4.58;100.00
4767;BME280;2397;53.576;9.746;2024-01-10T01:08:22;103581.59;;;-4.58;100.00
4767;BME280;2397;53.576;9.746;2024-01-10T01:10:49;103577.28;;;-4.59;100.00
4767;BME280;2397;53.576;9.746;2024-01-10T01:13:15;103574.75;;;-4.56;100.00
4767;BME280;2397;53.576;9.746;2024-01-10T01:15:42;103569.66;;;-4.47;100.00
4767;BME280;2397;53.576;9.746;2024-01-10T01:18:08;103566.19;;;-4.52;100.00
4767;BME280;2397;53.576;9.746;2024-01-10T01:20:36;103576.56;;;-4.46;100.00
4767;BME280;2397;53.576;9.746;2024-01-10T01:23:03;103583.50;;;-4.39;100.00
4767;BME280;2397;53.576;9.746;2024-01-10T01:25:30;103582.56;;;-4.48;100.00
4767;BME280;2397;53.576;9.746;2024-01-10T01:27:56;103579.94;;;-4.51;100.00
4767;BME280;2397;53.576;9.746;2024-01-10T01:30:23;103579.97;;;-4.50;100.00
4767;BME280;2397;53.576;9.746;2024-01-10T01:32:50;103578.34;;;-4.36;100.00
4767;BME280;2397;53.576;9.746;2024-01-10T01:35:16;103582.59;;;-4.41;100.00
4767;BME280;2397;53.576;9.746;2024-01-10T01:37:48;103571.44;;;-4.40;100.00
4767;BME280;2397;53.576;9.746;2024-01-10T01:40:15;103576.56;;;-4.46;100.00
4767;BME280;2397;53.576;9.746;2024-01-10T01:42:44;103577.38;;;-4.47;100.00
4767;BME280;2397;53.576;9.746;2024-01-10T01:45:11;103567.88;;;-4.52;100.00
4767;BME280;2397;53.576;9.746;2024-01-10T01:47:39;103569.59;;;-4.56;100.00
4767;BME280;2397;53.576;9.746;2024-01-10T01:50:07;103576.47;;;-4.55;100.00
4767;BME280;2397;53.576;9.746;2024-01-10T01:52:34;103570.44;;;-4.57;100.00
4767;BME280;2397;53.576;9.746;2024-01-10T01:55:01;103566.19;;;-4.52;100.00
4767;BME280;2397;53.576;9.746;2024-01-10T01:57:28;103577.31;;;-4.56;100.00
4767;BME280;2397;53.576;9.746;2024-01-10T01:59:56;103569.66;;;-4.50;100.00
4767;BME280;2397;53.576;9.746;2024-01-10T02:02:24;103568.72;;;-4.56;100.00
4767;BME280;2397;53.576;9.746;2024-01-10T02:04:51;103572.22;;;-4.47;100.00
4767;BME280;2397;53.576;9.746;2024-01-10T02:07:17;103579.97;;;-4.50;100.00
4767;BME280;2397;53.576;9.746;2024-01-10T02:09:44;103580.78;;;-4.54;100.00
4767;BME280;2397;53.576;9.746;2024-01-10T02:12:11;103568.72;;;-4.56;100.00
4767;BME280;2397;53.576;9.746;2024-01-10T02:14:37;103570.41;;;-4.60;100.00
4767;BME280;2397;53.576;9.746;2024-01-10T02:17:04;103573.94;;;-4.50;100.00
4767;BME280;2397;53.576;9.746;2024-01-10T02:19:31;103573.84;;;-4.58;100.00
4767;BME280;2397;53.576;9.746;2024-01-10T02:21:59;103567.00;;;-4.56;100.00
4767;BME280;2397;53.576;9.746;2024-01-10T02:24:25;103566.13;;;-4.58;100.00
4767;BME280;2397;53.576;9.746;2024-01-10T02:26:52;103571.28;;;-4.61;100.00
4767;BME280;2397;53.576;9.746;2024-01-10T02:29:18;103562.72;;;-4.57;100.00
4767;BME280;2397;53.576;9.746;2024-01-10T02:31:45;103560.16;;;-4.55;100.00
4767;BME280;2397;53.576;9.746;2024-01-10T02:34:12;103564.41;;;-4.59;100.00
4767;BME280;2397;53.576;9.746;2024-01-10T02:36:39;103562.75;;;-4.55;100.00
4767;BME280;2397;53.576;9.746;2024-01-10T02:39:05;103561.88;;;-4.54;100.00
4767;BME280;2397;53.576;9.746;2024-01-10T02:41:33;103562.75;;;-4.51;100.00
4767;BME280;2397;53.576;9.746;2024-01-10T02:43:59;103561.91;;;-4.47;100.00
4767;BME280;2397;53.576;9.746;2024-01-10T02:46:26;103555.91;;;-4.49;100.00
4767;BME280;2397;53.576;9.746;2024-01-10T02:48:55;103555.06;;;-4.48;100.00
4767;BME280;2397;53.576;9.746;2024-01-10T02:51:24;103555.03;;;-4.49;100.00
4767;BME280;2397;53.576;9.746;2024-01-10T02:53:51;103556.78;;;-4.50;100.00
4767;BME280;2397;53.576;9.746;2024-01-10T02:56:17;103559.28;;;-4.56;100.00
4767;BME280;2397;53.576;9.746;2024-01-10T02:58:44;103563.56;;;-4.55;100.00
4767;BME280;2397;53.576;9.746;2024-01-10T03:01:13;103567.88;;;-4.55;100.00
4767;BME280;2397;53.576;9.746;2024-01-10T03:03:41;103570.53;;;-4.45;100.00
4767;BME280;2397;53.576;9.746;2024-01-10T03:06:08;103572.22;;;-4.51;100.00
4767;BME280;2397;53.576;9.746;2024-01-10T03:08:35;103574.81;;;-4.50;100.00
4767;BME280;2397;53.576;9.746;2024-01-10T03:11:01;103573.13;;;-4.45;100.00
4767;BME280;2397;53.576;9.746;2024-01-10T03:13:28;103567.16;;;-4.39;100.00
4767;BME280;2397;53.576;9.746;2024-01-10T03:15:55;103564.63;;;-4.35;100.00
4767;BME280;2397;53.576;9.746;2024-01-10T03:18:22;103566.31;;;-4.37;100.00
4767;BME280;2397;53.576;9.746;2024-01-10T03:20:49;103567.13;;;-4.41;100.00
4767;BME280;2397;53.576;9.746;2024-01-10T03:23:16;103565.41;;;-4.43;100.00
4767;BME280;2397;53.576;9.746;2024-01-10T03:25:42;103564.56;;;-4.41;100.00
4767;BME280;2397;53.576;9.746;2024-01-10T03:28:09;103556.00;;;-4.37;100.00
4767;BME280;2397;53.576;9.746;2024-01-10T03:30:35;103555.13;;;-4.37;100.00
4767;BME280;2397;53.576;9.746;2024-01-10T03:33:02;103552.56;;;-4.36;100.00
4767;BME280;2397;53.576;9.746;2024-01-10T03:35:29;103549.13;;;-4.38;100.00
4767;BME280;2397;53.576;9.746;2024-01-10T03:37:55;103541.41;;;-4.36;100.00
4767;BME280;2397;53.576;9.746;2024-01-10T03:40:22;103543.09;;;-4.37;100.00
4767;BME280;2397;53.576;9.746;2024-01-10T03:42:49;103537.09;;;-4.39;100.00
4767;BME280;2397;53.576;9.746;2024-01-10T03:45:15;103540.47;;;-4.41;100.00
4767;BME280;2397;53.576;9.746;2024-01-10T03:47:47;103543.97;;;-4.38;100.00
4767;BME280;2397;53.576;9.746;2024-01-10T03:50:18;103536.22;;;-4.38;100.00
4767;BME280;2397;53.576;9.746;2024-01-10T03:52:46;103541.31;;;-4.45;100.00
4767;BME280;2397;53.576;9.746;2024-01-10T03:55:13;103537.91;;;-4.46;100.00
4767;BME280;2397;53.576;9.746;2024-01-10T03:57:39;103528.41;;;-4.47;100.00
4767;BME280;2397;53.576;9.746;2024-01-10T04:00:06;103521.50;;;-4.57;100.00
4767;BME280;2397;53.576;9.746;2024-01-10T04:02:33;103524.94;;;-4.55;100.00
4767;BME280;2397;53.576;9.746;2024-01-10T04:04:59;103523.31;;;-4.41;100.00
4767;BME280;2397;53.576;9.746;2024-01-10T04:07:27;103532.78;;;-4.40;100.00
4767;BME280;2397;53.576;9.746;2024-01-10T04:09:54;103525.97;;;-4.27;100.00
4767;BME280;2397;53.576;9.746;2024-01-10T04:12:20;103540.59;;;-4.28;100.00
4767;BME280;2397;53.576;9.746;2024-01-10T04:14:47;103536.25;;;-4.35;100.00
4767;BME280;2397;53.576;9.746;2024-01-10T04:17:13;103535.41;;;-4.32;100.00
4767;BME280;2397;53.576;9.746;2024-01-10T04:19:40;103537.06;;;-4.42;100.00
4767;BME280;2397;53.576;9.746;2024-01-10T04:22:07;103523.41;;;-4.29;100.00
4767;BME280;2397;53.576;9.746;2024-01-10T04:24:33;103532.03;;;-4.24;100.00
4767;BME280;2397;53.576;9.746;2024-01-10T04:27:00;103525.16;;;-4.22;100.00
4767;BME280;2397;53.576;9.746;2024-01-10T04:29:26;103526.00;;;-4.24;100.00
4767;BME280;2397;53.576;9.746;2024-01-10T04:31:53;103523.41;;;-4.26;100.00
4767;BME280;2397;53.576;9.746;2024-01-10T04:34:19;103527.69;;;-4.26;100.00
4767;BME280;2397;53.576;9.746;2024-01-10T04:36:46;103536.31;;;-4.26;100.00
4767;BME280;2397;53.576;9.746;2024-01-10T04:39:13;103529.53;;;-4.13;100.00
4767;BME280;2397;53.576;9.746;2024-01-10T04:41:39;103529.50;;;-4.15;100.00
4767;BME280;2397;53.576;9.746;2024-01-10T04:44:06;103532.97;;;-4.14;100.00
4767;BME280;2397;53.576;9.746;2024-01-10T04:46:32;103524.41;;;-4.09;100.00
4767;BME280;2397;53.576;9.746;2024-01-10T04:49:00;103523.59;;;-4.02;100.00
4767;BME280;2397;53.576;9.746;2024-01-10T04:51:26;103521.03;;;-3.94;100.00
4767;BME280;2397;53.576;9.746;2024-01-10T04:53:53;103522.72;;;-3.99;100.00
4767;BME280;2397;53.576;9.746;2024-01-10T04:56:19;103521.91;;;-3.88;100.00
4767;BME280;2397;53.576;9.746;2024-01-10T04:58:46;103525.31;;;-3.92;100.00
4767;BME280;2397;53.576;9.746;2024-01-10T05:01:13;103517.63;;;-3.89;100.00
4767;BME280;2397;53.576;9.746;2024-01-10T05:03:40;103517.69;;;-3.80;100.00
4767;BME280;2397;53.576;9.746;2024-01-10T05:06:06;103514.22;;;-3.79;100.00
4767;BME280;2397;53.576;9.746;2024-01-10T05:08:33;103510.78;;;-3.78;100.00
4767;BME280;2397;53.576;9.746;2024-01-10T05:11:00;103509.91;;;-3.83;100.00
4767;BME280;2397;53.576;9.746;2024-01-10T05:13:26;103503.91;;;-3.80;100.00
4767;BME280;2397;53.576;9.746;2024-01-10T05:15:53;103514.25;;;-3.76;100.00
4767;BME280;2397;53.576;9.746;2024-01-10T05:18:21;103501.34;;;-3.70;100.00
4767;BME280;2397;53.576;9.746;2024-01-10T05:20:47;103506.47;;;-3.80;100.00
4767;BME280;2397;53.576;9.746;2024-01-10T05:23:14;103507.34;;;-3.75;100.00
4767;BME280;2397;53.576;9.746;2024-01-10T05:25:41;103503.97;;;-3.64;100.00
4767;BME280;2397;53.576;9.746;2024-01-10T05:28:07;103503.09;;;-3.72;100.00
4767;BME280;2397;53.576;9.746;2024-01-10T05:30:34;103500.53;;;-3.67;100.00
4767;BME280;2397;53.576;9.746;2024-01-10T05:33:01;103503.97;;;-3.61;100.00
4767;BME280;2397;53.576;9.746;2024-01-10T05:35:28;103499.66;;;-3.62;100.00
4767;BME280;2397;53.576;9.746;2024-01-10T05:37:55;103497.91;;;-3.66;100.00
4767;BME280;2397;53.576;9.746;2024-01-10T05:40:23;103503.09;;;-3.67;100.00
4767;BME280;2397;53.576;9.746;2024-01-10T05:42:50;103492.78;;;-3.60;100.00
4767;BME280;2397;53.576;9.746;2024-01-10T05:45:16;103499.66;;;-3.59;100.00
4767;BME280;2397;53.576;9.746;2024-01-10T05:47:44;103498.00;;;-3.53;100.00
4767;BME280;2397;53.576;9.746;2024-01-10T05:50:11;103492.78;;;-3.60;100.00
4767;BME280;2397;53.576;9.746;2024-01-10T05:52:38;103504.88;;;-3.51;100.00
4767;BME280;2397;53.576;9.746;2024-01-10T05:55:05;103508.31;;;-3.47;100.00
4767;BME280;2397;53.576;9.746;2024-01-10T05:57:32;103513.47;;;-3.47;100.00
4767;BME280;2397;53.576;9.746;2024-01-10T05:59:59;103507.44;;;-3.54;100.00
4767;BME280;2397;53.576;9.746;2024-01-10T06:02:26;103503.13;;;-3.49;100.00
4767;BME280;2397;53.576;9.746;2024-01-10T06:04:53;103508.28;;;-3.51;100.00
4767;BME280;2397;53.576;9.746;2024-01-10T06:07:20;103510.03;;;-3.49;100.00
4767;BME280;2397;53.576;9.746;2024-01-10T06:09:47;103510.06;;;-3.40;100.00
4767;BME280;2397;53.576;9.746;2024-01-10T06:12:14;103508.31;;;-3.47;100.00
4767;BME280;2397;53.576;9.746;2024-01-10T06:14:40;103518.63;;;-3.51;100.00
4767;BME280;2397;53.576;9.746;2024-01-10T06:17:07;103510.91;;;-3.52;100.00
4767;BME280;2397;53.576;9.746;2024-01-10T06:19:34;103506.56;;;-3.52;100.00
4767;BME280;2397;53.576;9.746;2024-01-10T06:22:00;103505.72;;;-3.51;100.00
4767;BME280;2397;53.576;9.746;2024-01-10T06:24:27;103501.41;;;-3.61;100.00
4767;BME280;2397;53.576;9.746;2024-01-10T06:26:54;103503.09;;;-3.66;100.00
4767;BME280;2397;53.576;9.746;2024-01-10T06:29:21;103506.50;;;-3.70;100.00
4767;BME280;2397;53.576;9.746;2024-01-10T06:31:47;103500.50;;;-3.66;100.00
4767;BME280;2397;53.576;9.746;2024-01-10T06:34:14;103510.00;;;-3.56;100.00
4767;BME280;2397;53.576;9.746;2024-01-10T06:36:41;103511.72;;;-3.53;100.00
4767;BME280;2397;53.576;9.746;2024-01-10T06:39:11;103505.72;;;-3.53;100.00
4767;BME280;2397;53.576;9.746;2024-01-10T06:41:42;103503.97;;;-3.61;100.00
4767;BME280;2397;53.576;9.746;2024-01-10T06:44:09;103512.59;;;-3.56;100.00
4767;BME280;2397;53.576;9.746;2024-01-10T06:46:35;103508.28;;;-3.61;100.00
4767;BME280;2397;53.576;9.746;2024-01-10T06:49:02;103517.72;;;-3.69;100.00
4767;BME280;2397;53.576;9.746;2024-01-10T06:51:29;103515.13;;;-3.71;100.00
4767;BME280;2397;53.576;9.746;2024-01-10T06:53:56;103514.25;;;-3.70;100.00
4767;BME280;2397;53.576;9.746;2024-01-10T06:56:32;103512.53;;;-3.71;100.00
4767;BME280;2397;53.576;9.746;2024-01-10T06:59:00;103504.78;;;-3.80;100.00
4767;BME280;2397;53.576;9.746;2024-01-10T07:01:27;103509.91;;;-3.77;100.00
4767;BME280;2397;53.576;9.746;2024-01-10T07:03:54;103514.25;;;-3.73;100.00
4767;BME280;2397;53.576;9.746;2024-01-10T07:06:23;103516.84;;;-3.67;100.00
4767;BME280;2397;53.576;9.746;2024-01-10T07:08:50;103514.31;;;-3.59;100.00
4767;BME280;2397;53.576;9.746;2024-01-10T07:11:17;103517.72;;;-3.65;100.00
4767;BME280;2397;53.576;9.746;2024-01-10T07:13:46;103521.16;;;-3.70;100.00
4767;BME280;2397;53.576;9.746;2024-01-10T07:16:13;103515.13;;;-3.68;100.00
4767;BME280;2397;53.576;9.746;2024-01-10T07:18:42;103518.56;;;-3.72;100.00
4767;BME280;2397;53.576;9.746;2024-01-10T07:21:09;103513.41;;;-3.66;100.00
4767;BME280;2397;53.576;9.746;2024-01-10T07:23:35;103507.38;;;-3.69;100.00
4767;BME280;2397;53.576;9.746;2024-01-10T07:26:04;103509.13;;;-3.64;100.00
4767;BME280;2397;53.576;9.746;2024-01-10T07:28:31;103510.84;;;-3.63;100.00
4767;BME280;2397;53.576;9.746;2024-01-10T07:30:59;103510.78;;;-3.78;100.00
4767;BME280;2397;53.576;9.746;2024-01-10T07:33:28;103513.41;;;-3.69;100.00
4767;BME280;2397;53.576;9.746;2024-01-10T07:35:58;103511.66;;;-3.71;100.00
4767;BME280;2397;53.576;9.746;2024-01-10T07:38:25;103511.72;;;-3.59;100.00
4767;BME280;2397;53.576;9.746;2024-01-10T07:40:52;103511.72;;;-3.55;100.00
4767;BME280;2397;53.576;9.746;2024-01-10T07:43:19;103510.03;;;-3.54;100.00
4767;BME280;2397;53.576;9.746;2024-01-10T07:45:45;103508.28;;;-3.60;100.00
4767;BME280;2397;53.576;9.746;2024-01-10T07:48:12;103508.28;;;-3.60;100.00
4767;BME280;2397;53.576;9.746;2024-01-10T07:50:38;103519.53;;;-3.44;100.00
4767;BME280;2397;53.576;9.746;2024-01-10T07:53:05;103521.25;;;-3.41;100.00
4767;BME280;2397;53.576;9.746;2024-01-10T07:55:31;103517.78;;;-3.42;100.00
4767;BME280;2397;53.576;9.746;2024-01-10T07:57:58;103521.22;;;-3.47;100.00
4767;BME280;2397;53.576;9.746;2024-01-10T08:00:24;103519.53;;;-3.41;100.00
4767;BME280;2397;53.576;9.746;2024-01-10T08:02:51;103520.41;;;-3.37;100.00
4767;BME280;2397;53.576;9.746;2024-01-10T08:05:18;103525.59;;;-3.33;100.00
4767;BME280;2397;53.576;9.746;2024-01-10T08:07:47;103522.16;;;-3.24;100.00
4767;BME280;2397;53.576;9.746;2024-01-10T08:10:15;103519.56;;;-3.29;100.00
4767;BME280;2397;53.576;9.746;2024-01-10T08:12:42;103524.75;;;-3.24;100.00
4767;BME280;2397;53.576;9.746;2024-01-10T08:15:08;103523.03;;;-3.19;100.00
4767;BME280;2397;53.576;9.746;2024-01-10T08:17:35;103529.88;;;-3.23;100.00
4767;BME280;2397;53.576;9.746;2024-01-10T08:20:06;103532.53;;;-3.09;100.00
4767;BME280;2397;53.576;9.746;2024-01-10T08:22:33;103536.81;;;-3.13;100.00
4767;BME280;2397;53.576;9.746;2024-01-10T08:25:00;103534.25;;;-3.04;100.00
4767;BME280;2397;53.576;9.746;2024-01-10T08:27:26;103532.50;;;-3.06;100.00
4767;BME280;2397;53.576;9.746;2024-01-10T08:29:53;103532.53;;;-3.00;100.00
4767;BME280;2397;53.576;9.746;2024-01-10T08:32:20;103525.66;;;-2.98;100.00
4767;BME280;2397;53.576;9.746;2024-01-10T08:34:48;103535.97;;;-3.00;100.00
4767;BME280;2397;53.576;9.746;2024-01-10T08:37:15;103524.78;;;-2.97;100.00
4767;BME280;2397;53.576;9.746;2024-01-10T08:39:44;103518.75;;;-3.02;100.00
4767;BME280;2397;53.576;9.746;2024-01-10T08:42:11;103527.38;;;-3.08;100.00
4767;BME280;2397;53.576;9.746;2024-01-10T08:44:38;103525.66;;;-2.98;100.00
4767;BME280;2397;53.576;9.746;2024-01-10T08:47:05;103532.53;;;-3.00;100.00
4767;BME280;2397;53.576;9.746;2024-01-10T08:49:32;103530.81;;;-2.88;100.00
4767;BME280;2397;53.576;9.746;2024-01-10T08:51:59;103529.09;;;-2.96;100.00
4767;BME280;2397;53.576;9.746;2024-01-10T08:54:25;103523.06;;;-2.91;100.00
4767;BME280;2397;53.576;9.746;2024-01-10T08:56:53;103523.09;;;-2.82;100.00
4767;BME280;2397;53.576;9.746;2024-01-10T08:59:20;103523.06;;;-2.80;100.00
4767;BME280;2397;53.576;9.746;2024-01-10T09:01:47;103517.91;;;-2.77;100.00
4767;BME280;2397;53.576;9.746;2024-01-10T09:04:13;103519.63;;;-2.81;100.00
4767;BME280;2397;53.576;9.746;2024-01-10T09:06:40;103518.75;;;-2.84;100.00
4767;BME280;2397;53.576;9.746;2024-01-10T09:09:07;103517.06;;;-2.81;100.00
4767;BME280;2397;53.576;9.746;2024-01-10T09:11:34;103513.63;;;-2.71;100.00
4767;BME280;2397;53.576;9.746;2024-01-10T09:14:06;103504.97;;;-2.79;100.00
4767;BME280;2397;53.576;9.746;2024-01-10T09:16:33;103499.81;;;-2.77;100.00
4767;BME280;2397;53.576;9.746;2024-01-10T09:19:00;103505.84;;;-2.80;100.00
4767;BME280;2397;53.576;9.746;2024-01-10T09:21:27;103500.69;;;-2.74;100.00
4767;BME280;2397;53.576;9.746;2024-01-10T09:23:53;103497.25;;;-2.70;100.00
4767;BME280;2397;53.576;9.746;2024-01-10T09:26:23;103494.63;;;-2.76;100.00
4767;BME280;2397;53.576;9.746;2024-01-10T09:28:49;103486.00;;;-2.55;100.00
4767;BME280;2397;53.576;9.746;2024-01-10T09:31:16;103480.81;;;-2.40;100.00
4767;BME280;2397;53.576;9.746;2024-01-10T09:33:43;103483.41;;;-2.27;100.00
4767;BME280;2397;53.576;9.746;2024-01-10T09:36:09;103488.56;;;-2.36;100.00
4767;BME280;2397;53.576;9.746;2024-01-10T09:38:36;103487.75;;;-2.42;100.00
4767;BME280;2397;53.576;9.746;2024-01-10T09:41:05;103498.94;;;-2.46;100.00
4767;BME280;2397;53.576;9.746;2024-01-10T09:43:33;103491.19;;;-2.54;100.00
4767;BME280;2397;53.576;9.746;2024-01-10T09:46:02;103487.72;;;-2.50;100.00
4767;BME280;2397;53.576;9.746;2024-01-10T09:48:31;103490.31;;;-2.50;100.00
4767;BME280;2397;53.576;9.746;2024-01-10T09:50:59;103486.88;;;-2.53;100.00
4767;BME280;2397;53.576;9.746;2024-01-10T09:53:26;103490.31;;;-2.51;100.00
4767;BME280;2397;53.576;9.746;2024-01-10T09:55:53;103488.56;;;-2.31;100.00
4767;BME280;2397;53.576;9.746;2024-01-10T09:58:23;103485.91;;;-2.07;100.00
4767;BME280;2397;53.576;9.746;2024-01-10T10:00:52;103483.28;;;-1.92;100.00
4767;BME280;2397;53.576;9.746;2024-01-10T10:03:19;103487.56;;;-1.79;100.00
4767;BME280;2397;53.576;9.746;2024-01-10T10:05:46;103484.09;;;-1.80;100.00
4767;BME280;2397;53.576;9.746;2024-01-10T10:08:14;103489.25;;;-1.71;100.00
4767;BME280;2397;53.576;9.746;2024-01-10T10:10:49;103487.47;;;-1.61;100.00
4767;BME280;2397;53.576;9.746;2024-01-10T10:13:26;103485.75;;;-1.62;100.00
4767;BME280;2397;53.576;9.746;2024-01-10T10:15:58;103479.72;;;-1.70;100.00
4767;BME280;2397;53.576;9.746;2024-01-10T10:18:25;103479.78;;;-1.78;100.00
4767;BME280;2397;53.576;9.746;2024-01-10T10:21:09;103477.25;;;-1.91;100.00
4767;BME280;2397;53.576;9.746;2024-01-10T10:23:38;103479.03;;;-2.02;100.00
4767;BME280;2397;53.576;9.746;2024-01-10T10:26:13;103475.34;;;-1.56;100.00
4767;BME280;2397;53.576;9.746;2024-01-10T10:28:46;103469.97;;;-1.20;100.00
4767;BME280;2397;53.576;9.746;2024-01-10T10:31:14;103472.31;;;-0.92;100.00
4767;BME280;2397;53.576;9.746;2024-01-10T10:33:42;103467.28;;;-1.11;100.00
4767;BME280;2397;53.576;9.746;2024-01-10T10:36:09;103472.28;;;-0.86;100.00
4767;BME280;2397;53.576;9.746;2024-01-10T10:38:36;103476.25;;;-0.46;100.00
4767;BME280;2397;53.576;9.746;2024-01-10T10:41:07;103469.31;;;-0.45;100.00
4767;BME280;2397;53.576;9.746;2024-01-10T10:43:38;103478.78;;;-0.43;100.00
4767;BME280;2397;53.576;9.746;2024-01-10T10:46:07;103477.97;;;-0.46;99.97
4767;BME280;2397;53.576;9.746;2024-01-10T10:48:36;103475.22;;;-0.31;99.07
4767;BME280;2397;53.576;9.746;2024-01-10T10:51:11;103475.25;;;-0.33;98.09
4767;BME280;2397;53.576;9.746;2024-01-10T10:53:38;103481.22;;;-0.26;98.14
4767;BME280;2397;53.576;9.746;2024-01-10T10:56:07;103478.50;;;-0.11;98.19
4767;BME280;2397;53.576;9.746;2024-01-10T10:58:37;103481.97;;;-0.15;96.72
4767;BME280;2397;53.576;9.746;2024-01-10T11:01:05;103485.81;;;-0.54;96.60
4767;BME280;2397;53.576;9.746;2024-01-10T11:03:34;103482.03;;;-1.18;97.34
4767;BME280;2397;53.576;9.746;2024-01-10T11:06:01;103489.81;;;-1.21;99.89
4767;BME280;2397;53.576;9.746;2024-01-10T11:08:32;103493.13;;;-0.99;99.37
4767;BME280;2397;53.576;9.746;2024-01-10T11:11:02;103481.94;;;-1.07;99.41
4767;BME280;2397;53.576;9.746;2024-01-10T11:19:40;103486.28;;;-1.11;98.58
4767;BME280;2397;53.576;9.746;2024-01-10T11:22:24;103480.34;;;-1.23;98.35
4767;BME280;2397;53.576;9.746;2024-01-10T11:24:56;103479.66;;;-1.54;99.15
4767;BME280;2397;53.576;9.746;2024-01-10T11:27:26;103474.53;;;-1.61;100.00
4767;BME280;2397;53.576;9.746;2024-01-10T11:29:53;103480.53;;;-1.61;100.00
4767;BME280;2397;53.576;9.746;2024-01-10T11:32:22;103475.34;;;-1.59;100.00
4767;BME280;2397;53.576;9.746;2024-01-10T11:37:20;103479.72;;;-1.72;100.00
4767;BME280;2397;53.576;9.746;2024-01-10T11:39:46;103476.22;;;-1.51;100.00
4767;BME280;2397;53.576;9.746;2024-01-10T11:42:23;103477.84;;;-1.35;100.00
4767;BME280;2397;53.576;9.746;2024-01-10T11:44:51;103475.16;;;-1.23;100.00
4767;BME280;2397;53.576;9.746;2024-01-10T11:47:19;103475.94;;;-1.09;100.00
4767;BME280;2397;53.576;9.746;2024-01-10T11:49:57;103474.00;;;-0.86;98.82
4767;BME280;2397;53.576;9.746;2024-01-10T11:52:32;103462.81;;;-0.88;97.39
4767;BME280;2397;53.576;9.746;2024-01-10T11:55:00;103456.00;;;-1.04;97.73
4767;BME280;2397;53.576;9.746;2024-01-10T11:57:28;103459.47;;;-1.02;97.39
4767;BME280;2397;53.576;9.746;2024-01-10T11:59:58;103461.25;;;-1.10;96.99
4767;BME280;2397;53.576;9.746;2024-01-10T12:02:27;103462.09;;;-1.07;97.10
4767;BME280;2397;53.576;9.746;2024-01-10T12:04:54;103468.00;;;-0.87;95.73
4767;BME280;2397;53.576;9.746;2024-01-10T12:07:22;103462.50;;;-0.55;95.66
4767;BME280;2397;53.576;9.746;2024-01-10T12:09:50;103455.22;;;-0.20;94.84
4767;BME280;2397;53.576;9.746;2024-01-10T12:12:17;103457.78;;;-0.17;92.77
4767;BME280;2397;53.576;9.746;2024-01-10T12:14:43;103452.97;;;0.23;90.48
4767;BME280;2397;53.576;9.746;2024-01-10T12:17:11;103444.47;;;0.10;88.48
4767;BME280;2397;53.576;9.746;2024-01-10T12:19:37;103442.75;;;0.09;87.92
4767;BME280;2397;53.576;9.746;2024-01-10T12:22:05;103447.25;;;-0.05;88.33
4767;BME280;2397;53.576;9.746;2024-01-10T12:24:39;103438.44;;;0.10;88.54
4767;BME280;2397;53.576;9.746;2024-01-10T12:27:06;103438.84;;;-0.27;88.23
4767;BME280;2397;53.576;9.746;2024-01-10T12:29:33;103431.06;;;-0.27;89.68
4767;BME280;2397;53.576;9.746;2024-01-10T12:32:00;103439.63;;;-0.20;89.54
4767;BME280;2397;53.576;9.746;2024-01-10T12:34:27;103430.16;;;-0.23;88.66
4767;BME280;2397;53.576;9.746;2024-01-10T12:36:56;103425.09;;;-0.33;89.07
4767;BME280;2397;53.576;9.746;2024-01-10T12:39:22;103420.97;;;-0.52;89.81
4767;BME280;2397;53.576;9.746;2024-01-10T12:41:50;103419.28;;;-0.56;90.64
4767;BME280;2397;53.576;9.746;2024-01-10T12:44:17;103416.78;;;-0.65;90.30
4767;BME280;2397;53.576;9.746;2024-01-10T12:46:51;103414.81;;;-0.42;90.22
4767;BME280;2397;53.576;9.746;2024-01-10T12:49:22;103411.41;;;-0.47;89.67
4767;BME280;2397;53.576;9.746;2024-01-10T12:51:49;103421.22;;;-0.75;89.99
4767;BME280;2397;53.576;9.746;2024-01-10T12:54:16;103422.41;;;-1.13;91.65
4767;BME280;2397;53.576;9.746;2024-01-10T12:56:43;103419.09;;;-1.33;93.46
4767;BME280;2397;53.576;9.746;2024-01-10T12:59:10;103420.97;;;-1.53;94.66
4767;BME280;2397;53.576;9.746;2024-01-10T13:01:37;103418.38;;;-1.55;96.33
4767;BME280;2397;53.576;9.746;2024-01-10T13:04:04;103427.00;;;-1.51;97.38
4767;BME280;2397;53.576;9.746;2024-01-10T13:06:34;103422.66;;;-1.51;98.25
4767;BME280;2397;53.576;9.746;2024-01-10T13:09:01;103420.00;;;-1.40;98.27
4767;BME280;2397;53.576;9.746;2024-01-10T13:11:27;103418.38;;;-1.56;98.08
4767;BME280;2397;53.576;9.746;2024-01-10T13:13:56;103423.56;;;-1.53;98.75